KROG

Rogers Executive - Carter Field Airport

Rogers, Arkansas, USA
METAR KROG 191458Z 21013KT 10SM CLR 02/M08 A3011 RMK AO2 SLP206 T00221083 55006
Observed Flight Rules
Jan-19 @ 14:58 UTC (31 minutes ago) Visual Flight Rules
Wind Visibility Clouds
210° at 13 knots 10 miles
  • Clear skies
Temperatures Readings
Current 2°C / 36°F
Dewpoint -8°C / 18°F
Humidity 48%
Altimeter 30.11" Hg
Pressure 1020.6 hPa
Elevation 415
METAR KROG 191458Z 21013KT 10SM CLR 02/M08 A3011 RMK AO2 SLP206 T00221083 55006
Observed Flight Rules
Jan-19 @ 14:58 UTC
(31 minutes ago)
VFR
Wind Visibility
210° at 13 knots 10 miles
Clouds
  • Clear skies
Temperature Dewpoint
2°C / 36°F -8°C / 18°F
Humidity Altimeter Pressure
48% 30.11" Hg 1020.6 hPa